Time;durP1;ratioP1;P1;durP2;ratioP2;P2;SDS_P1;SDS_P2;PMS_P1;PMS_P2;Temp;Humidity;BMP_temperature;BMP_pressure;BME280_temperature;BME280_humidity;BME280_pressure;Samples;Min_cycle;Max_cycle;Signal;HPM_P1;HPM_P2
2023/06/10 00:01:34;;;;;;;;;;;;;;;18.00;99.24;94830.91;4974438;28;1003;-52
2023/06/10 00:04:00;;;;;;;;;;;;;;;17.70;100.00;94831.44;4974211;28;963;-52
2023/06/10 00:06:26;;;;;;;;;;;;;;;17.66;100.00;94832.91;4973525;28;2895;-52
2023/06/10 00:08:52;;;;;;;;;;;;;;;17.52;100.00;94825.88;4973614;28;2940;-53
2023/06/10 00:11:18;;;;;;;;;;;;;;;17.59;100.00;94829.41;4974332;28;1038;-52
2023/06/10 00:13:44;;;;;;;;;;;;;;;17.52;100.00;94821.28;4974370;28;980;-52
2023/06/10 00:16:10;;;;;;;;;;;;;;;17.37;100.00;94813.44;4974087;28;1982;-52
2023/06/10 00:18:38;;;;;;;;;;;;;;;17.16;100.00;94814.50;4974175;28;1034;-52
2023/06/10 00:21:04;;;;;;;;;;;;;;;17.23;100.00;94814.50;4974328;28;1961;-52
2023/06/10 00:23:38;;;;;;;;;;;;;;;17.39;100.00;94825.91;4974251;28;1671;-52
2023/06/10 00:26:04;;;;;;;;;;;;;;;17.62;100.00;94818.13;4971595;28;1108;-52
2023/06/10 00:28:30;;;;;;;;;;;;;;;17.62;100.00;94812.72;4974300;28;978;-52
2023/06/10 00:30:57;;;;;;;;;;;;;;;17.55;100.00;94809.25;4974174;28;1110;-52
2023/06/10 00:33:23;;;;;;;;;;;;;;;17.51;100.00;94813.38;4974040;28;1046;-53
2023/06/10 00:35:49;;;;;;;;;;;;;;;17.47;100.00;94809.47;4974210;28;986;-53
2023/06/10 00:38:15;;;;;;;;;;;;;;;17.25;100.00;94815.13;4974021;28;1055;-52
2023/06/10 00:40:41;;;;;;;;;;;;;;;16.91;100.00;94808.94;4974141;28;1902;-53
2023/06/10 00:43:07;;;;;;;;;;;;;;;16.88;100.00;94814.75;4973972;28;1221;-53
2023/06/10 00:45:34;;;;;;;;;;;;;;;16.90;100.00;94815.38;4973992;28;1049;-53
2023/06/10 00:48:00;;;;;;;;;;;;;;;16.77;100.00;94820.75;4974039;28;1288;-53
2023/06/10 00:50:27;;;;;;;;;;;;;;;16.68;100.00;94817.44;4975414;28;1121;-52
2023/06/10 00:52:56;;;;;;;;;;;;;;;16.75;100.00;94818.25;4977550;28;1034;-53
2023/06/10 00:55:23;;;;;;;;;;;;;;;16.87;100.00;94823.91;4977473;28;1071;-53
2023/06/10 00:57:49;;;;;;;;;;;;;;;16.95;100.00;94815.56;4977571;28;1005;-52
2023/06/10 01:00:15;;;;;;;;;;;;;;;16.82;100.00;94820.13;4977180;28;1988;-53
2023/06/10 01:02:41;;;;;;;;;;;;;;;16.71;100.00;94821.56;4977208;28;1055;-53
2023/06/10 01:05:08;;;;;;;;;;;;;;;16.63;100.00;94819.91;4977410;28;1035;-52
2023/06/10 01:07:53;;;;;;;;;;;;;;;16.70;100.00;94822.63;4976922;28;1054;-53
2023/06/10 01:10:19;;;;;;;;;;;;;;;16.64;100.00;94836.91;4977096;28;974;-53
2023/06/10 01:12:51;;;;;;;;;;;;;;;16.42;100.00;94829.00;4977097;28;1025;-53
2023/06/10 01:15:18;;;;;;;;;;;;;;;16.45;100.00;94833.16;4977010;28;978;-52
2023/06/10 01:18:01;;;;;;;;;;;;;;;16.40;100.00;94833.78;4977101;28;1037;-52
2023/06/10 01:20:28;;;;;;;;;;;;;;;16.48;100.00;94830.06;4976741;28;1910;-52
2023/06/10 01:22:54;;;;;;;;;;;;;;;16.63;100.00;94825.31;4976989;28;1038;-52
2023/06/10 01:25:27;;;;;;;;;;;;;;;16.71;100.00;94818.88;4976442;28;1711;-53
2023/06/10 01:28:02;;;;;;;;;;;;;;;16.78;100.00;94825.09;4959514;28;1039;-52
2023/06/10 01:30:33;;;;;;;;;;;;;;;16.73;100.00;94820.34;4976550;28;1059;-53
2023/06/10 01:32:59;;;;;;;;;;;;;;;16.51;99.89;94821.56;4976828;28;1071;-52
2023/06/10 01:35:28;;;;;;;;;;;;;;;16.36;100.00;94827.97;4976688;28;1014;-52
2023/06/10 01:37:56;;;;;;;;;;;;;;;16.42;100.00;94817.41;4976556;28;1608;-52
2023/06/10 01:40:23;;;;;;;;;;;;;;;16.50;100.00;94811.78;4976402;28;1910;-52
2023/06/10 01:42:51;;;;;;;;;;;;;;;16.45;100.00;94816.97;4976655;28;975;-53
2023/06/10 01:45:18;;;;;;;;;;;;;;;16.48;100.00;94814.69;4976305;28;1043;-53
2023/06/10 01:47:44;;;;;;;;;;;;;;;16.63;100.00;94806.41;4976634;28;979;-53
2023/06/10 01:50:10;;;;;;;;;;;;;;;16.55;100.00;94815.53;4976611;28;1073;-53
2023/06/10 01:52:37;;;;;;;;;;;;;;;16.47;100.00;94814.94;4974904;28;2511;-53
2023/06/10 01:55:03;;;;;;;;;;;;;;;16.45;100.00;94808.88;4976551;28;1038;-53
2023/06/10 01:57:29;;;;;;;;;;;;;;;16.62;100.00;94822.81;4976068;28;1003;-53
2023/06/10 01:59:55;;;;;;;;;;;;;;;16.78;100.00;94823.22;4976094;28;1914;-53
2023/06/10 02:02:22;;;;;;;;;;;;;;;16.83;100.00;94819.94;4975086;28;1006;-53
2023/06/10 02:04:48;;;;;;;;;;;;;;;16.48;99.61;94822.78;4976087;28;1105;-53
2023/06/10 02:07:14;;;;;;;;;;;;;;;16.16;100.00;94833.34;4976152;28;1063;-53
2023/06/10 02:09:40;;;;;;;;;;;;;;;15.87;100.00;94837.16;4975979;28;968;-53
2023/06/10 02:12:06;;;;;;;;;;;;;;;16.19;100.00;94834.78;4975913;28;1101;-53
2023/06/10 02:14:32;;;;;;;;;;;;;;;16.32;100.00;94839.38;4976001;28;1042;-53
2023/06/10 02:16:59;;;;;;;;;;;;;;;16.32;100.00;94845.59;4975954;28;1063;-53
2023/06/10 02:19:26;;;;;;;;;;;;;;;16.33;100.00;94835.63;4975687;28;1995;-53
2023/06/10 02:21:52;;;;;;;;;;;;;;;16.30;100.00;94838.75;4975992;28;1088;-53
2023/06/10 02:24:18;;;;;;;;;;;;;;;16.36;100.00;94833.38;4975310;28;1253;-53
2023/06/10 02:26:45;;;;;;;;;;;;;;;16.40;100.00;94834.63;4975544;28;1098;-53
2023/06/10 02:29:11;;;;;;;;;;;;;;;16.43;100.00;94836.09;4975718;28;1058;-53
2023/06/10 02:31:37;;;;;;;;;;;;;;;16.42;100.00;94837.13;4975737;28;1011;-53
2023/06/10 02:34:03;;;;;;;;;;;;;;;16.37;100.00;94823.41;4975766;28;958;-53
2023/06/10 02:36:29;;;;;;;;;;;;;;;16.39;100.00;94829.44;4975353;28;992;-52
2023/06/10 02:38:55;;;;;;;;;;;;;;;16.31;100.00;94827.75;4975372;28;1914;-53
2023/06/10 02:41:21;;;;;;;;;;;;;;;16.08;100.00;94830.81;4975264;28;1102;-53
2023/06/10 02:43:47;;;;;;;;;;;;;;;15.93;100.00;94835.53;4975557;28;1122;-53
2023/06/10 02:46:14;;;;;;;;;;;;;;;16.01;100.00;94832.63;4974186;28;3006;-53
2023/06/10 02:48:40;;;;;;;;;;;;;;;16.06;100.00;94830.19;4957954;28;1974;-53
2023/06/10 02:51:06;;;;;;;;;;;;;;;15.87;100.00;94829.06;4975458;28;1081;-53
2023/06/10 02:53:32;;;;;;;;;;;;;;;15.86;100.00;94823.88;4975322;28;972;-52
2023/06/10 02:55:58;;;;;;;;;;;;;;;15.87;100.00;94825.56;4975147;28;994;-52
2023/06/10 02:58:26;;;;;;;;;;;;;;;15.87;100.00;94822.84;4975029;28;1063;-53
2023/06/10 03:00:52;;;;;;;;;;;;;;;16.00;100.00;94828.31;4975249;28;1996;-53
2023/06/10 03:03:18;;;;;;;;;;;;;;;16.10;100.00;94823.34;4975173;28;1055;-53
2023/06/10 03:05:44;;;;;;;;;;;;;;;16.22;100.00;94820.91;4974990;28;1027;-53
2023/06/10 03:08:10;;;;;;;;;;;;;;;16.19;100.00;94795.16;4974872;28;1055;-54
2023/06/10 03:10:36;;;;;;;;;;;;;;;16.48;100.00;94828.19;4974819;28;1101;-53
2023/06/10 03:13:02;;;;;;;;;;;;;;;16.58;100.00;94823.22;4974852;28;1020;-53
2023/06/10 03:15:28;;;;;;;;;;;;;;;16.57;100.00;94832.34;4974623;28;1055;-54
2023/06/10 03:17:55;;;;;;;;;;;;;;;16.30;100.00;94830.66;4974779;28;1102;-54
2023/06/10 03:20:21;;;;;;;;;;;;;;;16.28;100.00;94832.75;4974691;28;1995;-54
2023/06/10 03:22:47;;;;;;;;;;;;;;;16.31;100.00;94822.34;4975052;28;1018;-54
2023/06/10 03:25:13;;;;;;;;;;;;;;;16.26;100.00;94832.09;4974174;28;1357;-55
2023/06/10 03:27:40;;;;;;;;;;;;;;;16.13;100.00;94831.03;4974652;28;1053;-54
2023/06/10 03:30:07;;;;;;;;;;;;;;;16.18;100.00;94835.81;4974705;28;1014;-54
2023/06/10 03:32:32;;;;;;;;;;;;;;;16.29;100.00;94829.81;4974816;28;976;-54
2023/06/10 03:34:59;;;;;;;;;;;;;;;16.22;100.00;94826.28;4974489;28;1103;-53
2023/06/10 03:37:25;;;;;;;;;;;;;;;16.07;100.00;94818.38;4974532;28;979;-54
2023/06/10 03:39:51;;;;;;;;;;;;;;;16.12;100.00;94817.75;4974402;28;1997;-54
2023/06/10 03:42:17;;;;;;;;;;;;;;;16.29;100.00;94810.09;4974742;28;1102;-54
2023/06/10 03:44:43;;;;;;;;;;;;;;;16.52;100.00;94813.28;4974330;28;1525;-54
2023/06/10 03:47:09;;;;;;;;;;;;;;;16.66;100.00;94814.09;4974673;28;1038;-54
2023/06/10 03:49:36;;;;;;;;;;;;;;;16.70;100.00;94825.31;4974711;28;1047;-54
2023/06/10 03:52:02;;;;;;;;;;;;;;;16.67;100.00;94813.06;4974363;28;1066;-54
2023/06/10 03:54:28;;;;;;;;;;;;;;;16.55;100.00;94815.53;4974516;28;1015;-56
2023/06/10 03:56:54;;;;;;;;;;;;;;;16.46;100.00;94807.84;4974631;28;1002;-57
2023/06/10 03:59:20;;;;;;;;;;;;;;;16.42;100.00;94812.00;4974400;28;1910;-57
2023/06/10 04:01:46;;;;;;;;;;;;;;;16.45;100.00;94816.97;4974698;28;1318;-57
2023/06/10 04:04:16;;;;;;;;;;;;;;;16.70;100.00;94817.22;4974536;28;968;-57
2023/06/10 04:06:43;;;;;;;;;;;;;;;16.87;100.00;94821.19;4974597;28;1033;-57
2023/06/10 04:09:09;;;;;;;;;;;;;;;16.93;100.00;94828.47;4974184;28;1074;-57
2023/06/10 04:11:35;;;;;;;;;;;;;;;16.98;100.00;94833.25;4974241;28;1113;-56
2023/06/10 04:14:01;;;;;;;;;;;;;;;17.11;100.00;94835.94;4974492;28;971;-56
2023/06/10 04:16:28;;;;;;;;;;;;;;;17.21;100.00;94838.22;4974280;28;1001;-56
2023/06/10 04:18:54;;;;;;;;;;;;;;;17.24;100.00;94843.16;4974216;28;1050;-56
2023/06/10 04:21:21;;;;;;;;;;;;;;;17.20;100.00;94841.13;4974369;28;1907;-56
2023/06/10 04:23:47;;;;;;;;;;;;;;;17.20;100.00;94836.53;4973998;28;1694;-56
2023/06/10 04:26:13;;;;;;;;;;;;;;;17.19;100.00;94834.88;4976984;28;1112;-56
2023/06/10 04:28:39;;;;;;;;;;;;;;;17.12;100.00;94829.47;4977711;28;1098;-56
2023/06/10 04:31:05;;;;;;;;;;;;;;;17.20;100.00;94827.59;4977881;28;980;-56
2023/06/10 04:33:32;;;;;;;;;;;;;;;17.15;100.00;94825.56;4977946;28;984;-57
2023/06/10 04:35:58;;;;;;;;;;;;;;;17.05;100.00;94828.66;4977649;28;1564;-56
2023/06/10 04:38:24;;;;;;;;;;;;;;;17.03;100.00;94829.91;4977549;28;1022;-57
2023/06/10 04:40:50;;;;;;;;;;;;;;;17.13;100.00;94836.56;4977760;28;1927;-57
2023/06/10 04:43:16;;;;;;;;;;;;;;;17.23;100.00;94835.31;4977698;28;1081;-57
2023/06/10 04:45:45;;;;;;;;;;;;;;;17.26;100.00;94838.38;4977812;28;1042;-56
2023/06/10 04:48:11;;;;;;;;;;;;;;;17.40;100.00;94841.09;4977698;28;1002;-56
2023/06/10 04:50:38;;;;;;;;;;;;;;;17.52;100.00;94837.50;4977692;28;958;-55
2023/06/10 04:53:04;;;;;;;;;;;;;;;17.58;100.00;94833.13;4977577;28;1055;-56
2023/06/10 04:55:30;;;;;;;;;;;;;;;17.69;100.00;94834.34;4977256;28;1058;-56
2023/06/10 04:57:57;;;;;;;;;;;;;;;17.98;100.00;94838.41;4977205;28;1046;-56
2023/06/10 05:00:23;;;;;;;;;;;;;;;18.15;100.00;94846.88;4977156;28;1906;-56
2023/06/10 05:02:49;;;;;;;;;;;;;;;18.70;98.12;94838.22;4977187;28;1066;-56
2023/06/10 05:05:16;;;;;;;;;;;;;;;19.23;97.01;94835.13;4977069;28;1121;-56
2023/06/10 05:07:42;;;;;;;;;;;;;;;19.76;93.63;94833.78;4977094;28;1130;-55
2023/06/10 05:10:11;;;;;;;;;;;;;;;20.14;89.79;94832.69;4977026;28;1115;-56
2023/06/10 05:12:38;;;;;;;;;;;;;;;19.98;89.23;94833.34;4977181;28;986;-56
2023/06/10 05:15:05;;;;;;;;;;;;;;;20.06;90.57;94833.00;4976973;28;1043;-56
2023/06/10 05:17:31;;;;;;;;;;;;;;;20.50;89.89;94835.56;4976928;28;999;-56
2023/06/10 05:19:58;;;;;;;;;;;;;;;20.65;86.64;94827.84;4976988;28;1939;-56
2023/06/10 05:22:24;;;;;;;;;;;;;;;20.81;87.39;94829.91;4976974;28;1003;-55
2023/06/10 05:24:51;;;;;;;;;;;;;;;20.90;85.98;94830.38;4976825;28;1717;-55
2023/06/10 05:27:17;;;;;;;;;;;;;;;21.16;84.05;94834.56;4976556;28;1214;-56
2023/06/10 05:29:43;;;;;;;;;;;;;;;21.35;81.84;94832.56;4976561;28;1027;-55
2023/06/10 05:32:09;;;;;;;;;;;;;;;21.45;80.39;94826.56;4976635;28;1130;-55
2023/06/10 05:34:35;;;;;;;;;;;;;;;20.99;85.57;94834.44;4976932;28;1015;-55
2023/06/10 05:37:01;;;;;;;;;;;;;;;20.53;86.28;94830.50;4976303;28;1175;-55
2023/06/10 05:39:27;;;;;;;;;;;;;;;20.27;86.14;94828.97;4976412;28;1918;-55
2023/06/10 05:41:53;;;;;;;;;;;;;;;19.99;89.92;94827.66;4976709;28;1070;-55
2023/06/10 05:44:19;;;;;;;;;;;;;;;20.00;91.52;94829.31;4976570;28;1033;-55
2023/06/10 05:46:45;;;;;;;;;;;;;;;19.94;88.68;94829.41;4976443;28;1062;-55
2023/06/10 05:49:11;;;;;;;;;;;;;;;20.05;91.34;94832.19;4976274;28;1192;-55
2023/06/10 05:51:38;;;;;;;;;;;;;;;20.24;90.15;94835.72;4976217;28;1045;-55
2023/06/10 05:54:04;;;;;;;;;;;;;;;20.25;90.06;94836.53;4976298;28;1556;-55
2023/06/10 05:56:30;;;;;;;;;;;;;;;20.23;90.20;94841.38;4976449;28;1051;-55
2023/06/10 05:58:56;;;;;;;;;;;;;;;20.39;90.53;94837.16;4976300;28;1009;-55
2023/06/10 06:01:22;;;;;;;;;;;;;;;20.47;88.92;94840.41;4975948;28;1906;-55
2023/06/10 06:03:48;;;;;;;;;;;;;;;20.60;89.23;94831.28;4976175;28;1056;-55
2023/06/10 06:06:14;;;;;;;;;;;;;;;20.56;86.47;94837.34;4975876;28;1077;-55
2023/06/10 06:08:40;;;;;;;;;;;;;;;20.51;89.49;94839.94;4976263;28;1010;-55
2023/06/10 06:11:06;;;;;;;;;;;;;;;20.52;88.78;94830.72;4976245;28;1067;-55
2023/06/10 06:13:32;;;;;;;;;;;;;;;20.40;90.04;94834.22;4976026;28;1025;-56
2023/06/10 06:15:59;;;;;;;;;;;;;;;20.39;90.85;94831.75;4976093;28;1018;-55
2023/06/10 06:18:25;;;;;;;;;;;;;;;20.32;90.66;94833.72;4975867;28;970;-55
2023/06/10 06:20:51;;;;;;;;;;;;;;;20.38;91.16;94830.09;4975934;28;1910;-55
2023/06/10 06:23:17;;;;;;;;;;;;;;;20.29;90.26;94837.72;4975826;28;1467;-55
2023/06/10 06:25:43;;;;;;;;;;;;;;;20.19;91.06;94832.03;4975424;28;1529;-56
2023/06/10 06:28:09;;;;;;;;;;;;;;;20.16;91.28;94840.63;4975525;28;1059;-55
2023/06/10 06:30:35;;;;;;;;;;;;;;;20.08;91.66;94837.16;4975965;28;1059;-55
2023/06/10 06:33:02;;;;;;;;;;;;;;;19.86;90.63;94828.66;4975579;28;1220;-55
2023/06/10 06:35:30;;;;;;;;;;;;;;;19.74;93.28;94832.34;4975686;28;1028;-55
2023/06/10 06:37:56;;;;;;;;;;;;;;;19.66;93.16;94825.31;4974783;28;3001;-55
2023/06/10 06:40:22;;;;;;;;;;;;;;;19.77;94.35;94826.47;4974864;28;2869;-55
2023/06/10 06:42:48;;;;;;;;;;;;;;;19.82;94.58;94832.03;4975650;28;1022;-56
2023/06/10 06:45:15;;;;;;;;;;;;;;;19.93;94.50;94834.00;4975559;28;987;-55
2023/06/10 06:47:41;;;;;;;;;;;;;;;19.91;93.13;94827.97;4974712;28;1047;-56
2023/06/10 06:50:07;;;;;;;;;;;;;;;19.94;93.14;94830.25;4975206;28;1089;-55
2023/06/10 06:52:33;;;;;;;;;;;;;;;20.14;92.63;94824.56;4958183;28;1026;-55
2023/06/10 06:54:59;;;;;;;;;;;;;;;20.19;93.37;94826.59;4975463;28;967;-56
2023/06/10 06:57:25;;;;;;;;;;;;;;;20.34;91.81;94818.06;4975015;28;1106;-56
2023/06/10 06:59:51;;;;;;;;;;;;;;;20.23;93.47;94816.94;4974974;28;1983;-55
2023/06/10 07:02:18;;;;;;;;;;;;;;;20.41;92.15;94821.47;4975199;28;1031;-55
2023/06/10 07:04:45;;;;;;;;;;;;;;;20.48;92.06;94817.59;4958040;28;1034;-53
2023/06/10 07:07:11;;;;;;;;;;;;;;;20.47;91.00;94818.69;4975023;28;1059;-54
2023/06/10 07:09:38;;;;;;;;;;;;;;;20.42;91.99;94818.53;4975264;28;1045;-54
2023/06/10 07:12:05;;;;;;;;;;;;;;;20.52;90.95;94815.25;4975022;28;1067;-55
2023/06/10 07:14:31;;;;;;;;;;;;;;;20.54;88.89;94813.13;4973910;28;2899;-54
2023/06/10 07:16:57;;;;;;;;;;;;;;;20.46;88.85;94808.03;4974830;28;978;-54
2023/06/10 07:19:23;;;;;;;;;;;;;;;20.53;89.45;94806.06;4974585;28;1915;-54
2023/06/10 07:21:49;;;;;;;;;;;;;;;20.65;89.55;94814.28;4974994;28;999;-54
2023/06/10 07:24:15;;;;;;;;;;;;;;;20.77;88.85;94800.72;4974656;28;1729;-54
2023/06/10 07:26:41;;;;;;;;;;;;;;;21.04;88.69;94812.00;4974573;28;1104;-54
2023/06/10 07:29:07;;;;;;;;;;;;;;;21.06;85.58;94816.13;4974553;28;1019;-54
2023/06/10 07:31:34;;;;;;;;;;;;;;;21.25;85.10;94816.03;4974856;28;943;-54
2023/06/10 07:34:00;;;;;;;;;;;;;;;21.34;83.71;94819.22;4974827;28;1055;-54
2023/06/10 07:36:28;;;;;;;;;;;;;;;21.44;84.76;94817.59;4974758;28;982;-54
2023/06/10 07:38:54;;;;;;;;;;;;;;;21.31;84.70;94808.81;4974718;28;994;-54
2023/06/10 07:41:22;;;;;;;;;;;;;;;21.52;82.55;94813.69;4974519;28;1911;-55
2023/06/10 07:43:54;;;;;;;;;;;;;;;21.77;82.48;94804.44;4973218;28;2538;-55
2023/06/10 07:46:21;;;;;;;;;;;;;;;22.00;82.89;94807.09;4955088;29;1050;-55
2023/06/10 07:48:47;;;;;;;;;;;;;;;22.00;83.30;94801.63;4955434;29;1035;-55
2023/06/10 07:51:14;;;;;;;;;;;;;;;22.09;82.88;94812.16;4955088;29;1078;-55
2023/06/10 07:53:40;;;;;;;;;;;;;;;22.17;79.11;94803.63;4955389;29;1019;-55
2023/06/10 07:56:06;;;;;;;;;;;;;;;22.29;77.66;94806.31;4955402;29;1050;-55
2023/06/10 07:58:32;;;;;;;;;;;;;;;22.36;78.24;94805.09;4955547;28;1022;-55
2023/06/10 08:00:58;;;;;;;;;;;;;;;22.58;79.93;94797.06;4958918;29;1996;-55
2023/06/10 08:03:24;;;;;;;;;;;;;;;22.93;77.81;94795.22;4959217;29;1030;-55
2023/06/10 08:05:50;;;;;;;;;;;;;;;23.17;78.42;94799.47;4959216;29;1007;-55
2023/06/10 08:08:16;;;;;;;;;;;;;;;22.95;77.34;94796.59;4973087;28;2893;-56
2023/06/10 08:10:42;;;;;;;;;;;;;;;22.81;79.36;94793.38;4978245;28;1063;-56
2023/06/10 08:13:08;;;;;;;;;;;;;;;22.76;77.25;94793.28;4978204;28;1309;-56
2023/06/10 08:15:35;;;;;;;;;;;;;;;22.79;78.96;94790.09;4978048;28;2004;-56
2023/06/10 08:18:01;;;;;;;;;;;;;;;22.60;79.61;94784.03;4977921;28;1038;-55
2023/06/10 08:20:27;;;;;;;;;;;;;;;22.57;79.18;94787.25;4978097;28;1918;-56
2023/06/10 08:22:53;;;;;;;;;;;;;;;22.47;77.19;94788.97;4978044;28;976;-56
2023/06/10 08:25:21;;;;;;;;;;;;;;;22.45;77.35;94782.94;4974143;28;1462;-56
2023/06/10 08:27:48;;;;;;;;;;;;;;;22.45;77.02;94782.94;4977891;28;1046;-56
2023/06/10 08:30:14;;;;;;;;;;;;;;;22.54;76.42;94776.84;4977736;28;1130;-54
2023/06/10 08:32:40;;;;;;;;;;;;;;;22.58;79.25;94783.44;4978038;28;1050;-56
2023/06/10 08:35:06;;;;;;;;;;;;;;;22.54;77.55;94776.84;4977719;28;1047;-56
2023/06/10 08:37:32;;;;;;;;;;;;;;;22.68;75.63;94774.63;4977571;28;986;-54
2023/06/10 08:39:58;;;;;;;;;;;;;;;22.90;76.94;94771.19;4977778;28;2003;-55
2023/06/10 08:42:33;;;;;;;;;;;;;;;22.99;73.39;94766.97;4977427;28;1090;-55
2023/06/10 08:45:00;;;;;;;;;;;;;;;22.89;72.65;94753.19;4977350;28;1046;-55
2023/06/10 08:47:29;;;;;;;;;;;;;;;22.98;73.88;94757.97;4977385;28;1046;-55
2023/06/10 08:49:56;;;;;;;;;;;;;;;23.15;72.96;94749.00;4977565;28;994;-55
2023/06/10 08:52:24;;;;;;;;;;;;;;;23.26;72.52;94749.94;4977312;28;1014;-55
2023/06/10 08:55:02;;;;;;;;;;;;;;;23.36;73.71;94752.84;4977726;28;1049;-55
2023/06/10 08:57:30;;;;;;;;;;;;;;;23.46;73.34;94750.25;4977362;28;1046;-55
2023/06/10 08:59:56;;;;;;;;;;;;;;;23.62;72.67;94756.75;4977195;28;2020;-55
2023/06/10 09:02:26;;;;;;;;;;;;;;;23.85;72.85;94752.16;4977153;28;1038;-55
2023/06/10 09:04:53;;;;;;;;;;;;;;;23.89;70.40;94753.31;4977479;28;1050;-55
2023/06/10 09:07:20;;;;;;;;;;;;;;;23.89;69.44;94742.38;4977277;28;1023;-55
2023/06/10 09:09:46;;;;;;;;;;;;;;;24.29;69.22;94736.53;4977167;28;1090;-55
2023/06/10 09:12:13;;;;;;;;;;;;;;;24.66;67.79;94744.06;4976377;28;1042;-55
2023/06/10 09:14:39;;;;;;;;;;;;;;;24.65;66.02;94742.41;4975621;28;2555;-55
2023/06/10 09:17:05;;;;;;;;;;;;;;;24.85;68.90;94738.19;4960093;28;1078;-55
2023/06/10 09:19:32;;;;;;;;;;;;;;;25.21;67.52;94733.00;4976754;28;1987;-56
2023/06/10 09:21:58;;;;;;;;;;;;;;;25.46;67.01;94732.34;4977045;28;999;-55
2023/06/10 09:24:25;;;;;;;;;;;;;;;25.17;63.62;94734.59;4973280;28;1734;-56
2023/06/10 09:27:01;;;;;;;;;;;;;;;24.94;66.58;94722.94;4976678;28;1218;-56
2023/06/10 09:29:27;;;;;;;;;;;;;;;24.92;64.72;94727.84;4976903;28;1138;-56
2023/06/10 09:31:54;;;;;;;;;;;;;;;24.86;64.11;94724.25;4976714;28;1106;-55
2023/06/10 09:34:20;;;;;;;;;;;;;;;24.92;63.14;94731.41;4976769;28;1058;-56
2023/06/10 09:36:47;;;;;;;;;;;;;;;24.98;63.39;94732.28;4976724;28;975;-56
2023/06/10 09:39:15;;;;;;;;;;;;;;;25.53;66.33;94732.94;4976517;28;2017;-56
2023/06/10 09:41:41;;;;;;;;;;;;;;;25.98;64.02;94734.28;4976445;28;1038;-56
2023/06/10 09:44:14;;;;;;;;;;;;;;;26.36;63.90;94734.13;4976669;28;1063;-56
2023/06/10 09:46:40;;;;;;;;;;;;;;;26.64;62.91;94730.13;4976588;28;982;-56
2023/06/10 09:49:06;;;;;;;;;;;;;;;26.25;63.09;94728.63;4976500;28;1033;-53
2023/06/10 09:51:33;;;;;;;;;;;;;;;26.10;62.23;94723.94;4959082;28;1125;-54
2023/06/10 09:54:01;;;;;;;;;;;;;;;26.10;62.22;94718.47;4976248;28;1117;-53
2023/06/10 09:56:35;;;;;;;;;;;;;;;26.30;61.94;94723.16;4976258;28;1109;-52
2023/06/10 09:59:01;;;;;;;;;;;;;;;26.52;61.08;94719.34;4975413;28;2896;-52
2023/06/10 10:01:27;;;;;;;;;;;;;;;26.55;63.11;94718.00;4975521;28;2900;-52
2023/06/10 10:03:54;;;;;;;;;;;;;;;26.84;60.92;94718.31;4976434;28;971;-52
2023/06/10 10:06:20;;;;;;;;;;;;;;;26.98;58.09;94718.63;4976019;28;1034;-52
2023/06/10 10:08:47;;;;;;;;;;;;;;;27.06;60.66;94718.88;4974582;28;2664;-52
2023/06/10 10:11:15;;;;;;;;;;;;;;;26.98;59.86;94718.63;4975372;28;2549;-54
2023/06/10 10:13:41;;;;;;;;;;;;;;;26.97;60.43;94705.97;4975539;28;2908;-51
2023/06/10 10:16:19;;;;;;;;;;;;;;;27.00;60.42;94708.19;4976029;28;1004;-51
2023/06/10 10:18:51;;;;;;;;;;;;;;;26.75;60.65;94720.81;4976123;28;982;-51
2023/06/10 10:21:21;;;;;;;;;;;;;;;25.94;63.20;94726.88;4975962;28;1977;-52
2023/06/10 10:23:52;;;;;;;;;;;;;;;25.36;67.48;94730.38;4974888;28;1475;-52
2023/06/10 10:26:21;;;;;;;;;;;;;;;24.60;66.01;94736.88;4975363;28;1164;-51
2023/06/10 10:28:51;;;;;;;;;;;;;;;23.79;67.47;94748.53;4975638;28;1039;-51
2023/06/10 10:31:19;;;;;;;;;;;;;;;23.12;70.14;94744.84;4975546;28;1042;-51
2023/06/10 10:33:51;;;;;;;;;;;;;;;22.81;74.68;94754.41;4975816;28;1300;-52
2023/06/10 10:36:18;;;;;;;;;;;;;;;22.52;85.31;94750.91;4975700;28;1058;-50
2023/06/10 10:38:45;;;;;;;;;;;;;;;22.03;83.37;94754.91;4975454;28;1067;-52
2023/06/10 10:41:12;;;;;;;;;;;;;;;21.51;90.47;94756.81;4975507;28;2025;-53
2023/06/10 10:43:38;;;;;;;;;;;;;;;21.34;91.38;94745.78;4975314;28;1059;-54
2023/06/10 10:46:08;;;;;;;;;;;;;;;21.30;92.35;94745.44;4975311;28;1121;-51
2023/06/10 10:48:37;;;;;;;;;;;;;;;21.39;91.78;94749.44;4975619;28;1147;-51
2023/06/10 10:51:03;;;;;;;;;;;;;;;21.49;92.33;94739.91;4975483;28;972;-51
2023/06/10 10:53:29;;;;;;;;;;;;;;;21.64;95.32;94740.22;4975062;28;1315;-51
2023/06/10 10:56:30;;;;;;;;;;;;;;;21.74;88.11;94745.03;4973931;28;2555;-51
2023/06/10 10:59:06;;;;;;;;;;;;;;;21.80;87.03;94742.19;4933623;28;1330;-51
2023/06/10 11:01:46;;;;;;;;;;;;;;;21.93;87.06;94741.09;4975150;28;1983;-52
2023/06/10 11:04:13;;;;;;;;;;;;;;;22.08;90.67;94746.00;4974948;28;1164;-54
2023/06/10 11:06:39;;;;;;;;;;;;;;;22.10;88.73;94745.75;4975088;28;1298;-54
2023/06/10 11:09:23;;;;;;;;;;;;;;;22.12;87.80;94738.16;4974959;28;971;-53
2023/06/10 11:11:50;;;;;;;;;;;;;;;22.42;90.51;94735.22;4975173;28;1051;-53
2023/06/10 11:14:25;;;;;;;;;;;;;;;22.74;80.92;94738.22;4974969;28;1034;-53
2023/06/10 11:16:55;;;;;;;;;;;;;;;22.93;80.20;94721.63;4974830;28;1118;-53
2023/06/10 11:19:38;;;;;;;;;;;;;;;23.05;83.34;94716.94;4974441;28;1919;-53
2023/06/10 11:22:08;;;;;;;;;;;;;;;23.25;78.46;94713.66;4973462;28;2925;-53
2023/06/10 11:24:34;;;;;;;;;;;;;;;23.35;77.73;94707.53;4974503;28;1349;-53
2023/06/10 11:27:20;;;;;;;;;;;;;;;23.72;73.12;94704.19;4974539;28;1238;-53
2023/06/10 11:29:59;;;;;;;;;;;;;;;24.00;75.72;94711.41;4974504;28;1217;-53
2023/06/10 11:32:32;;;;;;;;;;;;;;;23.84;69.27;94699.44;4973153;28;2594;-53
2023/06/10 11:34:58;;;;;;;;;;;;;;;23.91;69.61;94697.34;4974382;28;1207;-53
2023/06/10 11:37:24;;;;;;;;;;;;;;;24.25;72.81;94690.91;4974511;28;1098;-53
2023/06/10 11:39:54;;;;;;;;;;;;;;;24.53;70.67;94687.91;4974638;28;1911;-53
2023/06/10 11:42:21;;;;;;;;;;;;;;;24.78;69.41;94685.66;4974437;28;1098;-53
2023/06/10 11:44:51;;;;;;;;;;;;;;;24.80;67.63;94683.50;4974521;28;974;-53
2023/06/10 11:47:17;;;;;;;;;;;;;;;24.61;64.55;94678.41;4974505;28;1050;-53
2023/06/10 11:49:44;;;;;;;;;;;;;;;24.46;64.75;94681.81;4974564;28;1027;-53
2023/06/10 11:52:10;;;;;;;;;;;;;;;24.44;68.60;94688.63;4974512;28;979;-53
2023/06/10 11:54:37;;;;;;;;;;;;;;;24.33;63.42;94683.03;4974461;28;1050;-53
2023/06/10 11:57:03;;;;;;;;;;;;;;;24.34;64.63;94675.69;4973701;28;2945;-53
2023/06/10 11:59:30;;;;;;;;;;;;;;;24.31;62.21;94671.56;4973454;28;2917;-53
2023/06/10 12:01:56;;;;;;;;;;;;;;;24.46;66.03;94670.06;4974547;28;932;-53
2023/06/10 12:04:22;;;;;;;;;;;;;;;24.72;64.69;94669.22;4974551;28;956;-53
2023/06/10 12:06:49;;;;;;;;;;;;;;;24.80;66.23;94664.34;4974564;28;1272;-57
2023/06/10 12:09:15;;;;;;;;;;;;;;;24.96;68.99;94666.09;4974160;28;1051;-58
2023/06/10 12:11:43;;;;;;;;;;;;;;;25.05;65.17;94656.31;4974173;28;924;-57
2023/06/10 12:14:09;;;;;;;;;;;;;;;25.13;63.49;94664.00;4974183;28;1087;-55
2023/06/10 12:16:35;;;;;;;;;;;;;;;25.09;65.14;94659.34;4974415;28;1334;-55
2023/06/10 12:19:02;;;;;;;;;;;;;;;24.99;62.22;94653.81;4974139;28;1027;-56
2023/06/10 12:21:29;;;;;;;;;;;;;;;25.14;63.86;94652.00;4972649;28;2614;-55
2023/06/10 12:24:08;;;;;;;;;;;;;;;25.22;62.63;94645.19;4973328;28;2669;-56
2023/06/10 12:26:41;;;;;;;;;;;;;;;25.29;61.91;94650.47;4969608;28;2948;-56
2023/06/10 12:29:18;;;;;;;;;;;;;;;25.19;60.54;94644.91;4974420;28;1332;-55
2023/06/10 12:31:53;;;;;;;;;;;;;;;25.22;60.16;94641.63;4974205;28;1083;-55
2023/06/10 12:34:20;;;;;;;;;;;;;;;25.19;58.77;94642.16;4973993;28;966;-55
2023/06/10 12:36:49;;;;;;;;;;;;;;;25.33;59.65;94644.19;4974122;28;960;-55
2023/06/10 12:39:16;;;;;;;;;;;;;;;25.58;59.47;94648.13;4973853;28;1051;-55
2023/06/10 12:41:47;;;;;;;;;;;;;;;25.70;60.71;94645.16;4973133;28;2879;-55
2023/06/10 12:44:13;;;;;;;;;;;;;;;25.43;59.13;94640.69;4973415;28;2916;-55
2023/06/10 12:46:39;;;;;;;;;;;;;;;25.27;60.69;94630.72;4976249;28;1048;-55
2023/06/10 12:49:05;;;;;;;;;;;;;;;25.40;58.87;94634.91;4977515;28;1018;-56
2023/06/10 12:51:31;;;;;;;;;;;;;;;25.61;59.61;94627.59;4977391;28;971;-55
2023/06/10 12:53:58;;;;;;;;;;;;;;;25.78;58.12;94619.16;4977388;28;928;-55
2023/06/10 12:56:24;;;;;;;;;;;;;;;25.89;57.85;94620.84;4977454;28;963;-55